Time;durP1;ratioP1;P1;durP2;ratioP2;P2;SDS_P1;SDS_P2;PMS_P1;PMS_P2;Temp;Humidity;BMP_temperature;BMP_pressure;BME280_temperature;BME280_humidity;BME280_pressure;Samples;Min_cycle;Max_cycle;Signal;HPM_P1;HPM_P2
2020/12/06 00:01:53;;;;;;;16.27;8.10;;;;;;;10.43;70.61;99028.44;4898883;29;20052;-70
2020/12/06 00:04:21;;;;;;;12.93;7.38;;;;;;;10.40;70.78;99030.16;4897596;29;20511;-70
2020/12/06 00:06:49;;;;;;;12.93;6.60;;;;;;;10.36;70.48;99029.38;4898550;29;20503;-70
2020/12/06 00:09:17;;;;;;;13.07;6.95;;;;;;;10.39;70.47;99019.09;4898529;29;20056;-70
2020/12/06 00:11:45;;;;;;;11.88;6.82;;;;;;;10.40;70.49;99020.81;4898465;29;20062;-70
2020/12/06 00:14:16;;;;;;;13.13;6.72;;;;;;;10.37;70.69;99004.69;4898227;29;20040;-71
2020/12/06 00:16:44;;;;;;;12.77;6.60;;;;;;;10.47;70.43;99022.44;4897095;29;20053;-70
2020/12/06 00:19:15;;;;;;;12.65;6.78;;;;;;;10.35;70.68;99007.25;4900628;29;20053;-70
2020/12/06 00:21:46;;;;;;;12.60;7.65;;;;;;;10.46;70.56;99019.91;4901885;29;20044;-71
2020/12/06 00:24:17;;;;;;;12.25;6.97;;;;;;;10.46;70.75;99028.38;4902115;29;20076;-71
2020/12/06 00:26:48;;;;;;;14.68;7.43;;;;;;;10.42;70.72;99026.72;4900900;29;20052;-70
2020/12/06 00:29:17;;;;;;;12.68;7.05;;;;;;;10.37;70.11;99004.69;4885250;29;20144;-71
2020/12/06 00:31:48;;;;;;;14.05;6.85;;;;;;;10.05;70.79;98962.47;4901941;29;20060;-71
2020/12/06 00:34:16;;;;;;;14.15;7.60;;;;;;;10.43;70.96;99025.03;4901966;29;20052;-72
2020/12/06 00:36:48;;;;;;;12.52;7.03;;;;;;;10.46;70.30;99007.16;4901819;29;20051;-71
2020/12/06 00:39:16;;;;;;;11.32;6.32;;;;;;;10.46;70.33;99010.53;4901828;29;20468;-70
2020/12/06 00:41:47;;;;;;;12.88;7.40;;;;;;;10.54;69.85;99013.84;4901774;29;20083;-71
2020/12/06 00:44:15;;;;;;;14.15;7.43;;;;;;;10.47;69.65;98994.38;4900525;29;20052;-71
2020/12/06 00:46:44;;;;;;;12.55;7.05;;;;;;;10.57;69.83;98998.50;4901964;29;20131;-70
2020/12/06 00:49:12;;;;;;;11.50;6.78;;;;;;;10.55;69.91;99004.50;4901597;29;20049;-71
2020/12/06 00:51:43;;;;;;;13.20;6.72;;;;;;;10.48;70.00;98993.53;4901914;29;20432;-71
2020/12/06 00:54:11;;;;;;;12.88;7.22;;;;;;;10.59;70.14;99006.97;4901369;29;20040;-71
2020/12/06 00:56:39;;;;;;;12.80;6.35;;;;;;;10.59;69.56;99014.63;4901515;29;20056;-72
2020/12/06 00:59:07;;;;;;;13.27;6.60;;;;;;;10.56;69.79;99017.22;4901104;29;20406;-71
2020/12/06 01:01:39;;;;;;;12.25;6.43;;;;;;;10.46;69.83;99002.06;4901400;29;20053;-71
2020/12/06 01:04:11;;;;;;;12.63;7.00;;;;;;;10.56;69.88;99009.56;4900438;29;20056;-72
2020/12/06 01:06:42;;;;;;;11.27;6.63;;;;;;;10.54;69.62;99008.75;4901336;29;20092;-72
2020/12/06 01:09:10;;;;;;;11.27;6.55;;;;;;;10.63;69.28;99011.19;4901273;29;20048;-71
2020/12/06 01:11:41;;;;;;;12.70;6.60;;;;;;;10.59;69.50;99014.63;4900079;29;20096;-71
2020/12/06 01:14:12;;;;;;;13.30;6.90;;;;;;;10.62;69.65;99001.84;4900990;29;20056;-72
2020/12/06 01:16:43;;;;;;;11.75;6.63;;;;;;;10.65;69.30;99006.06;4899864;29;20061;-71
2020/12/06 01:19:12;;;;;;;13.60;6.97;;;;;;;10.75;68.65;99000.81;4901198;29;20056;-71
2020/12/06 01:21:48;;;;;;;13.07;7.40;;;;;;;10.66;69.12;98987.34;4901001;29;20131;-72
2020/12/06 01:24:18;;;;;;;11.23;6.90;;;;;;;10.75;69.16;98995.72;4900880;29;20052;-72
2020/12/06 01:26:51;;;;;;;11.85;6.32;;;;;;;10.70;68.88;98984.72;4900907;29;20139;-72
2020/12/06 01:29:22;;;;;;;10.20;6.38;;;;;;;10.65;68.93;98986.47;4900946;29;20056;-71
2020/12/06 01:31:55;;;;;;;10.98;6.28;;;;;;;10.69;68.86;99003.47;4900382;29;20151;-72
2020/12/06 01:34:24;;;;;;;13.50;6.80;;;;;;;10.71;68.90;99006.84;4900690;29;20079;-71
2020/12/06 01:36:55;;;;;;;12.82;6.72;;;;;;;10.66;69.07;98998.38;4900494;29;20040;-71
2020/12/06 01:39:23;;;;;;;12.73;6.28;;;;;;;10.64;69.68;99005.22;4900806;29;20063;-71
2020/12/06 01:41:54;;;;;;;11.75;6.30;;;;;;;10.71;69.48;99017.03;4900672;29;20451;-71
2020/12/06 01:44:22;;;;;;;11.32;6.07;;;;;;;10.65;69.71;98999.25;4899535;29;20049;-71
2020/12/06 01:46:53;;;;;;;12.32;6.70;;;;;;;10.58;69.40;98997.63;4899646;29;20091;-71
2020/12/06 01:49:35;;;;;;;10.65;6.32;;;;;;;10.68;69.01;98990.69;4900663;29;20571;-71
2020/12/06 01:52:07;;;;;;;10.93;6.68;;;;;;;10.68;69.09;98989.00;4900463;29;20055;-73
2020/12/06 01:54:38;;;;;;;13.40;6.78;;;;;;;10.71;68.84;98986.41;4899377;29;20495;-72
2020/12/06 01:57:10;;;;;;;11.63;6.63;;;;;;;10.72;69.01;98988.09;4900425;29;20053;-71
2020/12/06 01:59:44;;;;;;;12.07;6.93;;;;;;;10.62;68.70;98966.13;4900398;29;20064;-71
2020/12/06 02:02:17;;;;;;;12.93;7.38;;;;;;;10.68;68.61;98980.50;4899108;29;20403;-71
2020/12/06 02:04:48;;;;;;;12.77;6.57;;;;;;;10.32;68.55;98915.47;4900028;29;20075;-71
2020/12/06 02:07:19;;;;;;;13.00;7.10;;;;;;;10.77;68.73;98975.31;4900268;29;20104;-71
2020/12/06 02:09:48;;;;;;;10.95;6.05;;;;;;;10.75;68.50;98982.97;4900237;29;20108;-70
2020/12/06 02:12:18;;;;;;;11.98;7.00;;;;;;;10.72;68.59;98975.34;4900145;29;20570;-71
2020/12/06 02:14:46;;;;;;;10.48;6.47;;;;;;;10.65;69.20;98976.28;4900243;29;20074;-71
2020/12/06 02:17:17;;;;;;;10.57;6.07;;;;;;;10.66;69.16;98972.88;4900027;29;20043;-71
2020/12/06 02:19:45;;;;;;;10.60;5.93;;;;;;;10.64;69.39;98973.75;4900062;29;20068;-71
2020/12/06 02:22:14;;;;;;;12.27;6.57;;;;;;;10.52;69.34;98974.75;4898801;29;20440;-71
2020/12/06 02:24:42;;;;;;;9.75;5.95;;;;;;;10.64;69.01;98977.16;4899954;29;20052;-70
2020/12/06 02:27:13;;;;;;;12.50;6.35;;;;;;;10.57;69.23;98988.31;4898628;29;20059;-71
2020/12/06 02:29:43;;;;;;;11.15;6.20;;;;;;;10.38;69.58;98971.53;4899909;29;20490;-71
2020/12/06 02:32:14;;;;;;;9.73;6.00;;;;;;;10.45;69.30;98991.00;4899752;29;20147;-70
2020/12/06 02:34:42;;;;;;;10.95;6.18;;;;;;;10.48;69.05;98983.31;4899640;29;20044;-70
2020/12/06 02:37:10;;;;;;;12.15;6.18;;;;;;;10.53;69.70;98984.06;4899542;29;20083;-71
2020/12/06 02:39:39;;;;;;;10.27;6.15;;;;;;;10.52;68.96;98984.09;4899646;29;20052;-71
2020/12/06 02:42:07;;;;;;;11.63;6.28;;;;;;;10.53;69.41;98988.34;4898715;29;20448;-70
2020/12/06 02:44:38;;;;;;;12.30;6.60;;;;;;;10.53;68.98;98985.81;4899632;29;20049;-70
2020/12/06 02:47:06;;;;;;;10.05;5.57;;;;;;;10.49;69.10;98990.09;4899585;29;20503;-71
2020/12/06 02:49:39;;;;;;;9.90;5.75;;;;;;;10.47;69.41;98986.72;4899344;29;20044;-71
2020/12/06 02:52:10;;;;;;;11.00;6.45;;;;;;;10.46;69.26;98989.28;4899489;29;20056;-72
2020/12/06 02:54:39;;;;;;;9.98;5.80;;;;;;;10.44;69.49;98989.28;4899270;29;20135;-71
2020/12/06 02:57:07;;;;;;;10.80;6.05;;;;;;;10.43;69.59;98990.16;4899144;29;20407;-71
2020/12/06 02:59:38;;;;;;;12.60;6.47;;;;;;;10.13;69.83;98952.25;4899270;29;20503;-71
2020/12/06 03:02:09;;;;;;;11.10;6.47;;;;;;;10.36;69.78;98988.56;4899318;29;20060;-71
2020/12/06 03:04:37;;;;;;;10.05;5.80;;;;;;;10.28;69.63;98999.69;4898919;29;20060;-71
2020/12/06 03:07:05;;;;;;;12.95;6.43;;;;;;;10.27;69.79;99003.94;4898047;29;20511;-71
2020/12/06 03:09:36;;;;;;;9.88;6.20;;;;;;;10.21;69.60;99009.09;4898209;29;20076;-72
2020/12/06 03:12:09;;;;;;;12.65;6.55;;;;;;;10.06;70.21;99001.56;4897936;29;20053;-72
2020/12/06 03:14:40;;;;;;;9.95;6.00;;;;;;;9.99;70.75;99023.72;4898874;29;20052;-72
2020/12/06 03:17:10;;;;;;;10.30;5.75;;;;;;;9.85;70.66;99019.63;4897893;29;20147;-71
2020/12/06 03:19:38;;;;;;;11.00;6.25;;;;;;;9.97;70.42;99024.59;4898810;29;20045;-71
2020/12/06 03:22:06;;;;;;;11.27;6.70;;;;;;;10.03;70.57;99011.78;4898971;29;20499;-71
2020/12/06 03:24:37;;;;;;;11.50;6.20;;;;;;;10.07;70.90;99016.03;4898887;29;20132;-72
2020/12/06 03:27:05;;;;;;;10.32;6.35;;;;;;;10.00;70.62;99014.38;4897808;29;20071;-71
2020/12/06 03:29:33;;;;;;;11.05;6.38;;;;;;;9.94;71.10;99001.69;4898806;29;20041;-71
2020/12/06 03:32:04;;;;;;;7.20;4.40;;;;;;;10.12;70.65;99014.31;4898803;29;20060;-71
2020/12/06 03:34:32;;;;;;;10.80;5.95;;;;;;;10.06;71.01;99009.22;4898621;29;20048;-71
2020/12/06 03:37:00;;;;;;;10.65;6.20;;;;;;;10.02;70.94;99017.75;4898603;29;20517;-71
2020/12/06 03:39:29;;;;;;;11.07;7.10;;;;;;;9.94;70.71;99024.63;4898801;29;20056;-71
2020/12/06 03:42:00;;;;;;;12.38;6.00;;;;;;;9.83;71.16;99026.44;4899153;29;20144;-71
2020/12/06 03:44:28;;;;;;;11.10;6.13;;;;;;;9.43;71.34;98964.75;4898790;29;20057;-71
2020/12/06 03:47:00;;;;;;;9.80;6.30;;;;;;;9.75;72.06;99038.38;4898737;29;20582;-71
2020/12/06 03:49:28;;;;;;;10.45;5.75;;;;;;;9.85;72.05;99024.72;4898660;29;20061;-70
2020/12/06 03:51:58;;;;;;;10.55;5.88;;;;;;;10.01;71.71;99033.91;4898488;29;20052;-71
2020/12/06 03:54:29;;;;;;;11.10;6.45;;;;;;;9.97;71.56;99032.25;4901206;29;20048;-71
2020/12/06 03:57:00;;;;;;;12.23;6.30;;;;;;;9.80;71.92;99016.25;4902598;29;20056;-71
2020/12/06 03:59:31;;;;;;;11.20;6.20;;;;;;;9.83;72.26;99031.53;4902608;29;20056;-71
2020/12/06 04:02:01;;;;;;;11.85;6.10;;;;;;;9.71;72.09;99017.19;4901190;29;20601;-71
2020/12/06 04:04:29;;;;;;;10.90;6.30;;;;;;;9.80;71.89;99032.41;4901609;29;20059;-71
2020/12/06 04:06:56;;;;;;;9.75;6.03;;;;;;;9.76;71.85;99024.78;4895783;29;20048;-72
2020/12/06 04:09:25;;;;;;;10.90;6.38;;;;;;;9.74;72.13;99031.59;4888555;29;20053;-71
2020/12/06 04:11:55;;;;;;;11.10;6.43;;;;;;;9.85;72.94;99024.72;4886278;29;20041;-71
2020/12/06 04:14:23;;;;;;;12.50;6.63;;;;;;;9.89;72.51;99041.66;4883762;29;20113;-72
2020/12/06 04:16:54;;;;;;;10.95;5.85;;;;;;;10.00;72.08;99029.69;4882330;29;20049;-70
2020/12/06 04:19:23;;;;;;;10.25;5.72;;;;;;;9.92;71.70;99011.06;4882342;29;20120;-71
2020/12/06 04:21:51;;;;;;;10.48;6.22;;;;;;;10.00;72.08;99029.69;4882209;29;20499;-71
2020/12/06 04:24:20;;;;;;;9.10;5.53;;;;;;;10.10;71.56;99016.00;4883401;29;20053;-71
2020/12/06 04:26:50;;;;;;;9.23;5.72;;;;;;;10.13;71.48;99025.31;4883546;29;20045;-71
2020/12/06 04:29:21;;;;;;;9.50;5.93;;;;;;;10.24;70.55;99014.19;4883378;29;20063;-71
2020/12/06 04:31:52;;;;;;;13.57;6.22;;;;;;;10.20;71.13;99012.50;4883515;29;20064;-70
2020/12/06 04:34:24;;;;;;;10.50;6.10;;;;;;;10.06;70.90;98999.88;4882234;29;20091;-71
2020/12/06 04:36:54;;;;;;;10.30;5.75;;;;;;;10.05;71.03;98992.25;4891340;29;20049;-71
2020/12/06 04:39:24;;;;;;;9.80;5.93;;;;;;;10.15;71.41;99006.59;4883124;29;20084;-71
2020/12/06 04:41:52;;;;;;;9.02;5.38;;;;;;;10.14;70.96;99002.38;4883029;29;20168;-70
2020/12/06 04:44:23;;;;;;;10.60;5.95;;;;;;;10.25;70.59;99005.66;4883006;29;20113;-71
2020/12/06 04:46:51;;;;;;;11.95;6.10;;;;;;;10.25;70.25;99005.66;4882725;29;20393;-71
2020/12/06 04:49:28;;;;;;;11.48;6.78;;;;;;;10.21;71.12;99009.09;4882927;29;20139;-71
2020/12/06 04:51:57;;;;;;;9.00;5.72;;;;;;;10.17;71.42;99007.47;4883199;29;20064;-71
2020/12/06 04:54:32;;;;;;;9.57;5.63;;;;;;;10.15;71.39;99009.16;4883048;29;20053;-71
2020/12/06 04:57:04;;;;;;;10.45;5.82;;;;;;;10.10;71.47;99008.34;4882853;29;20160;-71
2020/12/06 04:59:34;;;;;;;9.07;5.53;;;;;;;10.02;71.48;98994.81;4882739;29;20049;-71
2020/12/06 05:02:06;;;;;;;10.77;6.32;;;;;;;10.07;71.48;99016.03;4882759;29;20491;-72
2020/12/06 05:04:40;;;;;;;9.02;5.32;;;;;;;10.08;71.11;99016.00;4881477;29;20558;-71
2020/12/06 05:07:12;;;;;;;10.13;5.57;;;;;;;10.03;72.02;99016.88;4882600;29;20057;-71
2020/12/06 05:09:42;;;;;;;9.98;5.15;;;;;;;10.06;71.12;99034.72;4882662;29;20469;-71
2020/12/06 05:12:14;;;;;;;8.52;5.65;;;;;;;10.01;72.08;99027.09;4882610;29;20053;-71
2020/12/06 05:14:42;;;;;;;9.70;5.35;;;;;;;10.01;71.54;99031.34;4882357;29;20052;-71
2020/12/06 05:17:11;;;;;;;9.85;5.63;;;;;;;9.99;71.51;99040.72;4882424;29;20144;-71
2020/12/06 05:19:43;;;;;;;9.35;5.65;;;;;;;9.92;71.95;99031.44;4881176;29;20048;-72
2020/12/06 05:22:15;;;;;;;10.45;6.05;;;;;;;9.92;72.24;99034.00;4882391;29;20105;-72
2020/12/06 05:24:46;;;;;;;8.82;5.72;;;;;;;9.87;72.30;99028.09;4882312;29;20136;-71
2020/12/06 05:27:18;;;;;;;10.02;5.90;;;;;;;9.86;72.13;99041.72;4882341;29;20411;-72
2020/12/06 05:29:49;;;;;;;9.45;5.75;;;;;;;9.84;73.06;99035.75;4882286;29;20414;-71
2020/12/06 05:32:20;;;;;;;9.20;6.05;;;;;;;9.77;72.82;99017.13;4882275;29;20136;-72
2020/12/06 05:34:48;;;;;;;10.32;6.10;;;;;;;9.94;72.42;99040.75;4882025;29;20120;-71
2020/12/06 05:37:19;;;;;;;24.03;18.60;;;;;;;9.85;72.64;99024.72;4882001;29;20059;-72
2020/12/06 05:39:47;;;;;;;17.58;14.07;;;;;;;9.80;72.71;99029.84;4882049;29;20053;-70
2020/12/06 05:42:19;;;;;;;10.15;6.72;;;;;;;9.77;72.31;99026.47;4882035;29;20144;-72
2020/12/06 05:44:55;;;;;;;9.80;5.72;;;;;;;9.74;72.76;99027.34;4882219;29;20053;-71
2020/12/06 05:47:23;;;;;;;9.80;6.28;;;;;;;9.84;73.53;99044.25;4881992;29;20053;-71
2020/12/06 05:49:53;;;;;;;10.02;5.60;;;;;;;9.97;72.74;99034.81;4880681;29;20061;-71
2020/12/06 05:52:24;;;;;;;15.15;10.07;;;;;;;10.00;72.31;99037.34;4881829;29;20060;-72
2020/12/06 05:54:53;;;;;;;10.52;6.38;;;;;;;9.85;72.73;99033.22;4881606;29;20052;-72
2020/12/06 05:57:28;;;;;;;8.82;6.45;;;;;;;9.45;72.57;98958.78;4881499;29;20132;-71
2020/12/06 05:59:59;;;;;;;9.52;5.93;;;;;;;9.95;72.49;99033.97;4881718;29;20507;-72
2020/12/06 06:02:31;;;;;;;10.30;5.95;;;;;;;9.91;72.74;99024.66;4881706;29;20061;-72
2020/12/06 06:05:02;;;;;;;8.95;5.50;;;;;;;9.95;72.56;99036.53;4880770;29;20071;-72
2020/12/06 06:07:31;;;;;;;11.80;5.82;;;;;;;9.93;72.21;99043.34;4881574;29;20479;-72
2020/12/06 06:10:05;;;;;;;9.70;6.32;;;;;;;9.90;72.77;99043.34;4881721;29;20084;-72
2020/12/06 06:12:39;;;;;;;9.20;5.57;;;;;;;9.87;72.36;99046.78;4880296;29;20059;-72
2020/12/06 06:15:07;;;;;;;9.98;6.13;;;;;;;9.85;72.86;99045.09;4881222;29;20061;-71
2020/12/06 06:17:41;;;;;;;14.07;6.10;;;;;;;9.86;72.53;99057.81;4880034;29;20140;-71
2020/12/06 06:20:11;;;;;;;9.25;5.93;;;;;;;9.82;72.83;99045.13;4881313;29;20064;-71
2020/12/06 06:22:39;;;;;;;10.63;6.25;;;;;;;9.82;72.97;99035.78;4881243;29;20493;-71
2020/12/06 06:25:08;;;;;;;12.63;7.28;;;;;;;9.84;72.89;99043.38;4881168;29;20056;-72
2020/12/06 06:27:36;;;;;;;10.55;5.97;;;;;;;9.75;73.29;99035.81;4881184;29;20136;-71
2020/12/06 06:30:05;;;;;;;9.52;5.68;;;;;;;9.83;73.13;99057.00;4880966;29;20052;-72
2020/12/06 06:32:33;;;;;;;8.13;5.28;;;;;;;9.85;73.26;99056.13;4880861;29;20084;-72
2020/12/06 06:35:01;;;;;;;9.70;5.68;;;;;;;9.89;73.02;99055.25;4880815;29;20073;-72
2020/12/06 06:37:30;;;;;;;8.48;5.57;;;;;;;9.89;73.07;99041.66;4880721;29;20377;-72
2020/12/06 06:39:58;;;;;;;9.35;5.68;;;;;;;9.93;72.79;99062.00;4880793;29;20057;-71
2020/12/06 06:42:26;;;;;;;8.98;5.13;;;;;;;9.92;72.68;99056.94;4881103;29;20084;-72
2020/12/06 06:44:58;;;;;;;10.13;5.53;;;;;;;9.93;73.44;99064.56;4880659;29;20049;-72
2020/12/06 06:47:26;;;;;;;8.88;5.18;;;;;;;9.86;73.14;99059.53;4880631;29;20415;-71
2020/12/06 06:49:54;;;;;;;8.70;5.50;;;;;;;9.91;72.98;99065.44;4880579;29;20057;-71
2020/12/06 06:52:22;;;;;;;9.48;5.80;;;;;;;9.91;73.28;99065.44;4879555;29;20475;-72
2020/12/06 06:54:51;;;;;;;9.13;5.65;;;;;;;10.02;72.83;99073.84;4880491;29;20056;-72
2020/12/06 06:57:20;;;;;;;6.43;4.07;;;;;;;10.05;72.04;99074.66;4880762;29;20053;-72
2020/12/06 06:59:49;;;;;;;9.40;5.20;;;;;;;10.05;72.18;99073.81;4880445;29;20056;-73
2020/12/06 09:23:15;;;;;;;8.10;4.40;;;;;;;12.56;62.51;98993.66;4620605;23;20056;-77
2020/12/06 09:25:44;;;;;;;6.97;4.50;;;;;;;12.47;62.49;99011.75;4926991;29;20052;-76
2020/12/06 09:28:12;;;;;;;7.38;4.63;;;;;;;12.50;62.27;99009.16;4917513;29;20095;-75
2020/12/06 09:30:41;;;;;;;8.40;4.90;;;;;;;12.47;62.85;99016.88;4917035;29;20044;-75
2020/12/06 09:33:09;;;;;;;9.43;4.78;;;;;;;12.60;62.71;99010.63;4917460;29;20076;-76
2020/12/06 09:35:37;;;;;;;7.53;4.53;;;;;;;12.54;61.94;98997.97;4899308;29;20049;-76
2020/12/06 09:38:05;;;;;;;6.97;4.55;;;;;;;12.71;62.48;99024.09;4899625;29;20402;-77
2020/12/06 09:40:34;;;;;;;7.20;4.55;;;;;;;12.75;62.00;99010.34;4899861;29;20136;-78
2020/12/06 09:43:02;;;;;;;8.13;4.75;;;;;;;12.62;61.84;98998.69;4912886;29;20060;-77
2020/12/06 09:45:31;;;;;;;8.45;4.90;;;;;;;12.84;62.03;99017.00;4898989;29;20159;-77
2020/12/06 09:47:59;;;;;;;8.07;4.85;;;;;;;12.13;61.95;98941.63;4916549;29;20054;-77
2020/12/06 09:50:27;;;;;;;7.40;4.38;;;;;;;12.24;63.05;98990.88;4914354;29;20052;-78
2020/12/06 09:52:55;;;;;;;10.30;5.03;;;;;;;12.04;63.25;98989.50;4898941;29;20061;-77
2020/12/06 09:55:24;;;;;;;10.82;5.45;;;;;;;11.99;63.79;99006.69;4918169;29;20048;-78
2020/12/06 09:57:53;;;;;;;9.00;4.75;;;;;;;11.77;64.20;98987.44;4916866;29;20074;-78
2020/12/06 10:00:21;;;;;;;8.77;4.97;;;;;;;12.02;64.17;99004.03;4917906;29;20438;-78
2020/12/06 10:02:50;;;;;;;9.38;4.75;;;;;;;11.99;63.87;98991.34;4901307;29;20048;-78
2020/12/06 10:05:18;;;;;;;8.25;5.07;;;;;;;12.18;63.75;98991.00;4917975;29;20454;-78
2020/12/06 10:07:47;;;;;;;11.00;5.38;;;;;;;12.45;62.82;99000.72;4917948;29;20387;-74
2020/12/06 10:10:14;;;;;;;8.10;4.50;;;;;;;12.66;62.21;99000.28;4916106;29;20442;-74
2020/12/06 10:12:42;;;;;;;7.78;4.32;;;;;;;12.51;61.46;98934.88;4918032;29;20150;-75
2020/12/06 10:15:11;;;;;;;6.75;4.65;;;;;;;12.63;61.32;98955.13;4917482;29;20131;-75
2020/12/06 10:17:41;;;;;;;8.27;5.05;;;;;;;12.19;61.60;98900.59;4917036;29;20052;-75
2020/12/06 10:20:09;;;;;;;7.70;4.95;;;;;;;12.59;61.68;98927.06;4917959;29;20051;-74
2020/12/06 10:22:37;;;;;;;7.75;4.78;;;;;;;12.97;61.02;98970.59;4916218;29;20094;-77
2020/12/06 10:25:05;;;;;;;6.82;4.20;;;;;;;12.72;60.39;98928.47;4916662;29;20052;-77
2020/12/06 10:27:35;;;;;;;7.53;3.92;;;;;;;13.01;59.85;98958.56;4918129;29;20096;-75
2020/12/06 10:30:03;;;;;;;6.43;4.00;;;;;;;12.28;59.95;98839.84;4918473;29;20052;-75
2020/12/06 10:32:33;;;;;;;6.25;4.10;;;;;;;12.77;60.17;98885.69;4917594;29;20675;-76
2020/12/06 10:35:02;;;;;;;7.88;4.60;;;;;;;12.85;59.89;98904.28;4917409;29;20565;-76
2020/12/06 10:37:35;;;;;;;7.93;4.43;;;;;;;13.33;59.67;98964.69;4917098;29;20095;-75
2020/12/06 10:40:03;;;;;;;7.57;4.13;;;;;;;13.32;59.55;98957.88;4918857;29;20052;-75
2020/12/06 10:42:34;;;;;;;7.30;4.40;;;;;;;13.20;59.16;98940.22;4918396;29;20076;-76
2020/12/06 10:45:05;;;;;;;6.75;4.13;;;;;;;13.33;59.27;98922.84;4918421;29;20056;-75
2020/12/06 10:47:38;;;;;;;6.25;3.78;;;;;;;13.33;59.05;98949.31;4918419;29;20056;-76
2020/12/06 10:50:08;;;;;;;6.40;3.90;;;;;;;13.75;58.88;98952.53;4918384;29;20084;-74
2020/12/06 10:52:39;;;;;;;6.10;3.83;;;;;;;13.54;58.16;98926.59;4918235;29;20131;-74
2020/12/06 10:55:10;;;;;;;6.80;3.90;;;;;;;13.40;57.69;98897.03;4916984;29;20050;-73
2020/12/06 10:57:38;;;;;;;6.75;3.95;;;;;;;13.63;57.72;98947.72;4918209;29;20083;-73
2020/12/06 11:00:09;;;;;;;6.13;3.67;;;;;;;13.58;58.08;98941.84;4918105;29;20063;-74
2020/12/06 11:02:41;;;;;;;8.55;4.57;;;;;;;13.37;58.30;98940.66;4917487;29;20108;-75
2020/12/06 11:05:12;;;;;;;7.28;3.63;;;;;;;13.39;58.69;98938.06;4918314;29;20060;-74
2020/12/06 11:07:40;;;;;;;6.55;4.18;;;;;;;13.52;58.20;98929.19;4916856;29;20108;-74
2020/12/06 11:10:11;;;;;;;7.50;4.05;;;;;;;13.63;58.07;98918.69;4917978;29;20111;-74
2020/12/06 11:12:45;;;;;;;6.97;4.03;;;;;;;13.52;57.74;98923.22;4917997;29;20127;-74
2020/12/06 11:15:15;;;;;;;6.93;4.00;;;;;;;13.29;58.31;98865.69;4916603;29;20052;-74
2020/12/06 11:17:52;;;;;;;6.95;4.32;;;;;;;13.37;57.96;98889.41;4917937;29;20056;-74
2020/12/06 11:20:23;;;;;;;7.40;4.20;;;;;;;13.44;58.10;98921.69;4918243;29;20058;-75
2020/12/06 11:22:54;;;;;;;7.50;4.20;;;;;;;13.71;58.23;98909.06;4916359;29;20608;-75
2020/12/06 11:25:26;;;;;;;6.72;3.97;;;;;;;13.64;57.59;98912.66;4918172;29;20138;-75
2020/12/06 11:27:57;;;;;;;6.80;4.05;;;;;;;13.50;57.70;98909.59;4917760;29;20059;-78
2020/12/06 11:30:29;;;;;;;7.95;4.00;;;;;;;13.25;58.17;98894.81;4916616;29;20052;-79
2020/12/06 11:33:00;;;;;;;6.38;3.78;;;;;;;13.13;57.82;98851.56;4916536;29;20052;-79
2020/12/06 11:35:31;;;;;;;7.40;4.40;;;;;;;13.28;58.10;98894.75;4917642;29;20573;-79
2020/12/06 11:38:02;;;;;;;8.13;4.40;;;;;;;13.35;58.09;98880.91;4901193;29;20390;-79
2020/12/06 11:40:34;;;;;;;7.35;4.30;;;;;;;13.14;58.05;98855.81;4900600;29;20048;-79
2020/12/06 11:43:05;;;;;;;7.00;3.88;;;;;;;13.55;57.69;98889.81;4917595;29;20052;-76
2020/12/06 11:45:33;;;;;;;7.20;3.97;;;;;;;13.49;58.03;98898.50;4917619;29;20052;-77
2020/12/06 11:48:03;;;;;;;7.63;3.75;;;;;;;13.49;57.52;98874.59;4869767;29;20052;-77
2020/12/06 11:50:34;;;;;;;7.07;3.37;;;;;;;13.82;56.92;98879.69;4917548;29;20507;-79
2020/12/06 11:53:03;;;;;;;10.77;5.45;;;;;;;13.78;57.07;98877.25;4916162;29;20557;-78
2020/12/06 11:55:34;;;;;;;7.28;3.97;;;;;;;13.46;57.40;98856.75;4917636;29;20052;-78
2020/12/06 11:58:02;;;;;;;7.57;3.85;;;;;;;13.18;57.40;98795.94;4917504;29;20131;-78
2020/12/06 12:00:33;;;;;;;9.65;4.50;;;;;;;13.51;57.46;98875.41;4916161;29;20043;-78
2020/12/06 12:03:04;;;;;;;9.15;4.38;;;;;;;13.22;57.49;98815.47;4917380;29;20517;-78
2020/12/06 12:05:35;;;;;;;6.77;4.13;;;;;;;12.96;57.20;98774.25;4917386;29;20116;-79
2020/12/06 12:08:03;;;;;;;8.27;4.30;;;;;;;13.42;58.04;98861.94;4916093;29;20275;-78
2020/12/06 12:10:34;;;;;;;6.65;4.18;;;;;;;13.19;58.03;98865.97;4916147;29;20100;-79
2020/12/06 12:13:02;;;;;;;6.22;3.75;;;;;;;13.25;58.43;98866.63;4900635;29;20056;-79
2020/12/06 12:15:30;;;;;;;6.18;3.30;;;;;;;13.20;58.19;98850.53;4918409;29;20052;-78
2020/12/06 12:18:01;;;;;;;8.27;4.35;;;;;;;13.10;58.50;98843.13;4920853;29;20152;-77
2020/12/06 12:20:37;;;;;;;8.48;4.47;;;;;;;13.09;58.52;98862.78;4919642;29;20048;-78
2020/12/06 12:23:05;;;;;;;6.93;3.70;;;;;;;12.62;58.24;98788.75;4919631;29;20044;-79
2020/12/06 12:25:37;;;;;;;5.75;3.47;;;;;;;13.03;58.85;98860.31;4920901;29;20048;-79
2020/12/06 12:28:09;;;;;;;6.40;3.58;;;;;;;12.76;58.66;98817.44;4921008;29;20054;-78
2020/12/06 12:30:40;;;;;;;6.35;3.67;;;;;;;13.01;58.49;98849.25;4903882;29;20104;-79
2020/12/06 12:33:08;;;;;;;7.32;3.38;;;;;;;12.65;58.94;98819.38;4919960;29;20162;-79
2020/12/06 12:35:40;;;;;;;7.45;4.10;;;;;;;12.89;59.33;98838.47;4920589;29;20499;-78
2020/12/06 12:38:11;;;;;;;6.53;3.65;;;;;;;12.84;59.30;98833.44;4919638;29;20060;-78
2020/12/06 12:40:42;;;;;;;6.22;3.92;;;;;;;12.76;59.61;98843.06;4920637;29;20059;-78
2020/12/06 12:43:11;;;;;;;8.85;4.00;;;;;;;12.66;59.65;98847.53;4920932;29;20059;-79
2020/12/06 12:45:42;;;;;;;6.60;4.00;;;;;;;12.63;59.49;98837.34;4903672;29;20506;-78
2020/12/06 12:48:11;;;;;;;8.20;3.92;;;;;;;12.63;59.84;98831.38;4920587;29;20067;-78
2020/12/06 12:50:42;;;;;;;7.22;4.05;;;;;;;12.64;59.63;98848.44;4920396;29;20052;-78
2020/12/06 12:53:14;;;;;;;7.07;3.92;;;;;;;12.66;59.87;98841.56;4920509;29;20056;-77
2020/12/06 12:55:46;;;;;;;6.90;3.60;;;;;;;12.62;59.95;98845.91;4919051;29;20096;-78
2020/12/06 12:58:14;;;;;;;6.95;4.05;;;;;;;12.58;59.90;98834.06;4920421;29;20052;-78
2020/12/06 13:00:45;;;;;;;8.63;4.13;;;;;;;12.18;60.20;98771.84;4920296;29;20052;-78
2020/12/06 13:03:15;;;;;;;6.50;3.35;;;;;;;12.60;59.98;98844.25;4920317;29;20052;-78
2020/12/06 13:05:47;;;;;;;5.55;3.25;;;;;;;12.50;60.15;98840.22;4920285;29;20048;-78
2020/12/06 13:08:15;;;;;;;8.23;3.95;;;;;;;12.48;60.01;98832.56;4919364;29;20120;-78
2020/12/06 13:10:46;;;;;;;7.60;3.72;;;;;;;12.47;59.87;98824.94;4920116;29;20066;-78
2020/12/06 13:13:20;;;;;;;7.60;4.32;;;;;;;12.53;60.12;98841.00;4920245;29;20055;-78
2020/12/06 13:15:51;;;;;;;7.55;4.10;;;;;;;12.44;60.19;98823.28;4920254;29;20055;-78
2020/12/06 13:18:19;;;;;;;7.22;3.97;;;;;;;12.54;60.30;98841.84;4919796;29;20561;-78
2020/12/06 13:20:51;;;;;;;6.47;3.75;;;;;;;12.37;60.11;98819.19;4920231;29;20036;-78
2020/12/06 13:23:22;;;;;;;6.88;4.38;;;;;;;12.48;60.25;98857.31;4919018;29;20438;-78
2020/12/06 13:25:53;;;;;;;6.28;3.92;;;;;;;12.40;60.28;98841.31;4919009;29;20056;-78
2020/12/06 13:28:25;;;;;;;6.63;3.88;;;;;;;12.00;60.26;98767.94;4919858;29;20056;-78
2020/12/06 13:30:56;;;;;;;6.82;3.90;;;;;;;12.38;60.33;98840.50;4919827;29;20081;-78
2020/12/06 13:33:30;;;;;;;7.90;3.85;;;;;;;12.36;60.62;98837.09;4919850;29;20056;-77
2020/12/06 13:36:02;;;;;;;7.03;4.07;;;;;;;12.15;60.39;98799.19;4918384;29;20080;-78
2020/12/06 13:38:33;;;;;;;8.00;4.20;;;;;;;12.30;60.67;98832.97;4919745;29;20058;-78
2020/12/06 13:41:06;;;;;;;8.55;4.10;;;;;;;12.28;60.92;98833.88;4919371;29;20048;-78
2020/12/06 13:43:34;;;;;;;7.40;3.92;;;;;;;12.21;61.07;98816.97;4919579;29;20135;-78
2020/12/06 13:46:03;;;;;;;10.55;4.60;;;;;;;12.19;61.18;98823.84;4919768;29;20094;-78
2020/12/06 13:48:31;;;;;;;11.93;5.03;;;;;;;12.22;61.09;98827.16;4919210;29;20486;-78
2020/12/06 13:51:03;;;;;;;10.00;4.55;;;;;;;12.09;61.28;98808.66;4919031;29;20414;-78
2020/12/06 13:53:34;;;;;;;11.15;5.05;;;;;;;11.95;61.11;98790.22;4919450;29;20084;-73
2020/12/06 13:56:06;;;;;;;10.73;4.65;;;;;;;12.21;61.24;98840.84;4919246;29;20060;-73
2020/12/06 13:58:34;;;;;;;8.68;4.43;;;;;;;12.23;61.12;98843.38;4919326;29;20059;-73
2020/12/06 14:01:03;;;;;;;9.37;4.83;;;;;;;11.64;61.06;98732.88;4919701;29;20099;-73
2020/12/06 14:03:35;;;;;;;9.20;4.82;;;;;;;12.20;60.98;98835.75;4917748;29;20528;-73
2020/12/06 14:06:07;;;;;;;10.63;4.25;;;;;;;11.88;60.72;98783.56;4918024;29;20394;-74